Station: Naracoorte

  Atmospheric Gas Attenuation - ITU Rec 676-11   --------------- db/100km ---------------
Date Time Temp RH % AH g/m3 Dew Point Wind Direction Speed kph Gust kph Barometer mB Rainfall Since 9am 24GHz 47GHz 76GHz 122GHz 134GHz 241GHz
03 08:40 16 66 8.99 9.7 13 15 1021.5 0 20.3 26.2 40.6 106.5 101.4 349.1
03 08:30 15.2 70 9.09 9.8 6 13 1021.6 0 20.6 26.6 41.4 108.7 103.8 357.3
03 08:20 15.2 71 9.22 10 7 9 1021.6 0 20.8 26.8 42.0 110.1 105.5 363.4
03 08:10 14.7 73 9.19 9.9 11 13 1021.6 0 20.8 26.9 42.1 110.5 105.8 364.3
03 08:00 14.1 73 8.86 9.3 7 11 1021.5 0 20.1 26.5 41.1 107.7 102.1 351.6
03 07:50 13.9 73 8.75 9.1 9 11 1021.4 0 19.9 26.4 40.7 106.8 100.9 347.3
03 07:40 13.7 76 9 9.6 4 7 1021.2 0 20.4 26.9 41.8 109.8 104.5 359.9
03 07:30 13.2 78 8.96 9.5 9 13 1021.1 0 20.4 27.0 41.9 110.0 104.7 360.2
03 07:20 12.3 81 8.8 9.1 7 7 1021 0 20.1 27.0 41.7 109.5 103.7 356.7
03 07:10 11.3 83 8.47 8.5 6 7 1020.9 0 19.4 26.7 40.9 107.2 100.5 345.4
03 07:00 10.8 84 8.3 8.2 0 0 1020.8 0 19.1 26.6 40.4 106.0 98.8 339.4
03 06:50 10.6 86 8.4 8.4 0 0 1020.7 0 19.3 26.8 40.9 107.4 100.4 345.1
03 06:40 9.6 87 7.97 7.5 0 0 1020.6 0 18.4 26.4 39.7 103.9 95.8 328.7
03 06:30 9.2 87 7.77 7.2 0 0 1020.4 0 18.0 26.1 39.0 102.2 93.5 320.7
03 06:20 9 86 7.58 6.8 0 0 1020.4 0 17.6 25.9 38.3 100.4 91.2 312.4
03 06:10 9 86 7.58 6.8 0 0 1020.4 0 17.6 25.9 38.3 100.4 91.2 312.4
03 06:00 9.1 86 7.63 6.9 0 0 1020.2 0 17.7 25.9 38.5 100.8 91.7 314.3
03 05:50 9.2 86 7.68 7 0 0 1020.2 0 17.8 26.0 38.6 101.2 92.3 316.3
03 05:40 9.5 86 7.83 7.3 0 0 1020.3 0 18.1 26.2 39.1 102.5 94.0 322.3
03 05:30 9.3 86 7.73 7.1 0 0 1020.3 0 17.9 26.0 38.8 101.6 92.8 318.3
03 05:20 9 86 7.58 6.8 0 4 1020.2 0 17.6 25.9 38.3 100.3 91.1 312.3
03 05:00 9.2 86 7.68 7 6 7 1019.8 0 17.8 26.0 38.6 101.1 92.2 316.2
03 04:50 9.4 86 7.78 7.2 6 7 1019.8 0 18.0 26.1 38.9 102.0 93.4 320.2
03 04:40 9.4 87 7.87 7.3 7 9 1019.6 0 18.2 26.2 39.3 103.0 94.6 324.4
03 04:30 9.4 87 7.87 7.3 9 11 1019.5 0 18.2 26.2 39.3 103.0 94.6 324.4
03 04:20 9.5 87 7.92 7.4 9 9 1019.6 0 18.3 26.3 39.5 103.4 95.1 326.4
03 04:10 9.4 88 7.96 7.5 7 9 1019.5 0 18.4 26.4 39.7 104.0 95.8 328.7
03 04:00 8.8 88 7.66 6.9 4 7 1019.5 0 17.8 26.0 38.7 101.4 92.4 316.8
03 03:50 8.4 88 7.47 6.5 6 6 1019.5 0 17.4 25.8 38.1 99.8 90.3 309.3
03 03:40 7.4 87 6.92 5.4 0 0 1019.5 0 16.3 25.2 36.3 95.0 83.9 286.8
03 03:30 7.3 86 6.8 5.1 0 0 1019.4 0 16.0 25.0 35.9 93.8 82.4 281.5
03 03:20 7.5 86 6.89 5.3 0 0 1019.3 0 16.2 25.1 36.1 94.5 83.4 285.0
03 03:10 8.5 87 7.43 6.5 0 0 1019.4 0 17.3 25.7 37.9 99.2 89.6 306.9
03 03:00 8.8 87 7.58 6.8 0 0 1019.4 0 17.6 25.9 38.4 100.5 91.3 312.9
03 02:50 8.2 86 7.21 6 0 0 1019.5 0 16.9 25.5 37.1 97.2 87.0 297.6
03 02:40 8.3 86 7.25 6.1 0 0 1019.5 0 16.9 25.5 37.3 97.5 87.4 299.2
03 02:30 8.2 86 7.21 6 0 0 1019.5 0 16.9 25.5 37.1 97.2 87.0 297.6
03 02:20 8.3 87 7.34 6.3 0 0 1019.6 0 17.1 25.7 37.6 98.5 88.6 303.5
03 02:10 7.9 86 7.07 5.7 0 0 1019.7 0 16.6 25.3 36.7 96.0 85.4 292.2
03 02:00 7.6 85 6.85 5.2 0 0 1019.8 0 16.1 25.1 35.9 94.0 82.8 282.8
03 01:50 7.5 85 6.81 5.1 0 0 1019.8 0 16.0 25.0 35.8 93.7 82.3 281.3
03 01:40 8.2 85 7.12 5.8 0 0 1019.8 0 16.7 25.3 36.8 96.2 85.8 293.4
03 01:30 8.2 84 7.04 5.7 0 0 1019.8 0 16.5 25.2 36.4 95.3 84.7 289.6
03 01:20 8.5 84 7.17 6 0 0 1019.8 0 16.8 25.3 36.8 96.4 86.1 294.7
03 01:10 8.2 84 7.04 5.7 0 0 1019.7 0 16.5 25.2 36.4 95.3 84.7 289.6
03 01:00 8.8 83 7.23 6.1 0 0 1019.7 0 16.9 25.3 36.9 96.7 86.6 296.4
03 00:50 8.6 82 7.05 5.7 0 0 1019.7 0 16.5 25.1 36.3 95.0 84.4 288.6
03 00:40 8.9 81 7.1 5.8 0 0 1019.8 0 16.6 25.1 36.4 95.2 84.7 289.9
03 00:30 8.8 79 6.88 5.4 0 0 1019.8 0 16.1 24.8 35.5 92.9 81.9 279.9
03 00:20 9.8 78 7.24 6.2 0 0 1019.9 0 16.9 25.1 36.5 95.6 85.6 293.1
03 00:10 9.9 76 7.1 5.9 0 0 1020 0 16.6 24.8 35.9 94.0 83.7 286.3
03 00:00 10.5 75 7.28 6.3 0 0 1020.1 0 16.9 25.0 36.4 95.2 85.4 292.4
02 23:50 10.9 75 7.46 6.6 0 0 1020.1 0 17.3 25.1 36.9 96.6 87.3 299.3
02 23:40 11.4 74 7.6 6.9 0 0 1020.1 0 17.6 25.2 37.2 97.5 88.6 303.8
02 23:30 11.7 74 7.74 7.2 0 0 1020.1 0 17.8 25.4 37.7 98.6 90.1 309.1
02 23:20 11.8 74 7.79 7.3 0 0 1020.2 0 17.9 25.4 37.8 99.1 90.7 311.1
02 23:10 11.8 75 7.89 7.5 0 0 1020.2 0 18.2 25.6 38.2 100.1 92.0 315.7
02 23:00 11.7 76 7.95 7.6 0 0 1020.1 0 18.3 25.7 38.5 100.9 92.9 318.9
02 22:50 11.5 77 7.95 7.6 0 0 1020.1 0 18.3 25.8 38.6 101.2 93.2 319.7
02 22:40 11 78 7.81 7.3 0 0 1020.1 0 18.0 25.7 38.3 100.3 91.9 315.2
02 22:30 10.3 78 7.47 6.6 0 0 1019.9 0 17.3 25.3 37.2 97.5 88.1 302.0
02 22:20 9.6 77 7.06 5.8 0 0 1019.8 0 16.5 24.8 35.9 93.9 83.4 285.5
02 22:10 9.6 75 6.87 5.4 0 0 1019.7 0 16.1 24.5 35.1 91.8 80.9 276.6
02 22:00 9.2 74 6.61 4.8 9 13 1019.7 0 15.5 24.2 34.3 89.5 77.9 266.0
02 21:50 9.7 74 6.82 5.3 11 13 1019.6 0 16.0 24.4 34.9 91.2 80.2 274.0
02 21:40 10.1 72 6.81 5.3 11 13 1019.5 0 15.9 24.3 34.7 90.6 79.6 272.1
02 21:30 10.8 71 7.02 5.8 11 13 1019.2 0 16.3 24.4 35.2 92.0 81.6 279.2
02 21:20 11.2 70 7.1 5.9 11 13 1019.2 0 16.5 24.4 35.3 92.4 82.2 281.4
02 21:10 11.6 69 7.17 6.1 15 15 1019 0 16.6 24.4 35.4 92.6 82.7 283.1
02 21:00 11.7 67 7.01 5.8 13 17 1018.8 0 16.3 24.1 34.7 90.8 80.5 275.5
02 20:50 12.5 64 7.04 5.9 15 17 1018.8 0 16.3 24.0 34.5 90.2 80.1 274.1
02 20:40 13 63 7.15 6.1 22 24 1018.6 0 16.5 24.0 34.7 90.7 80.9 277.2
02 20:30 13.2 62 7.12 6.1 20 28 1018.4 0 16.5 23.9 34.5 90.2 80.3 275.1
02 20:20 13.5 61 7.14 6.1 22 24 1018.3 0 16.5 23.9 34.4 90.0 80.3 274.9
02 20:10 13.9 60 7.19 6.3 24 30 1018.1 0 16.6 23.8 34.4 90.1 80.5 275.7
02 20:00 14.4 59 7.29 6.5 22 30 1017.8 0 16.8 23.8 34.6 90.5 81.2 278.3
02 19:50 14.9 58 7.39 6.7 26 30 1017.8 0 17.0 23.9 34.8 91.0 81.9 280.9
02 19:40 15.3 57 7.44 6.8 30 32 1017.7 0 17.0 23.8 34.8 91.0 82.1 281.7
02 19:30 15.8 55 7.4 6.8 28 39 1017.4 0 16.9 23.6 34.4 90.0 81.1 278.1
02 19:20 16.2 56 7.72 7.4 30 33 1017.4 0 17.6 24.0 35.4 92.7 84.6 290.6
02 19:10 16.5 54 7.58 7.2 32 37 1017.2 0 17.3 23.7 34.8 91.0 82.6 283.4
02 19:00 17 53 7.67 7.4 28 37 1017 0 17.5 23.7 34.9 91.3 83.2 285.5
02 18:50 17.3 53 7.81 7.6 28 32 1016.9 0 17.7 23.8 35.3 92.3 84.5 290.4
02 18:40 17.8 51 7.74 7.5 30 35 1016.7 0 17.6 23.6 34.8 91.1 83.1 285.5
02 18:30 18.2 51 7.93 7.9 30 43 1016.5 0 18.0 23.8 35.3 92.4 85.0 292.1
02 18:20 18.3 50 7.82 7.7 26 30 1016.5 0 17.7 23.6 34.9 91.3 83.6 287.1
02 18:10 18.6 48 7.64 7.4 30 33 1016.4 0 17.3 23.2 34.1 89.2 81.1 278.4
02 18:00 19.1 48 7.87 7.8 30 43 1016.1 0 17.8 23.4 34.7 90.8 83.3 286.3
02 17:50 19.7 48 8.15 8.4 26 32 1016.1 0 18.4 23.7 35.4 92.8 86.0 295.9
02 17:40 19.4 48 8.01 8.1 35 41 1015.9 0 18.1 23.5 35.0 91.8 84.7 291.0
02 17:30 19.8 46 7.86 7.9 30 41 1015.7 0 17.7 23.2 34.3 89.9 82.4 283.3
02 17:20 20 46 7.95 8 28 35 1015.8 0 17.9 23.3 34.6 90.5 83.3 286.4
02 17:10 19.8 48 8.2 8.5 41 48 1015.5 0 18.5 23.7 35.6 93.2 86.5 297.5
02 17:00 20.7 47 8.46 9 35 46 1015.4 0 19.0 23.9 36.1 94.6 88.6 305.0
02 16:50 20.7 46 8.28 8.7 35 41 1015.4 0 18.6 23.6 35.4 92.9 86.5 297.5
02 16:40 21.2 47 8.71 9.4 35 41 1015.3 0 19.5 24.1 36.8 96.5 91.0 313.6
02 16:30 21.5 48 9.05 10 39 50 1015 0 20.2 24.5 37.9 99.4 94.8 326.7
02 16:20 22.1 46 8.98 9.9 39 46 1014.8 0 20.0 24.2 37.3 98.0 93.2 321.3
02 16:10 22.5 45 8.99 10 39 48 1014.7 0 20.0 24.1 37.2 97.6 92.8 320.1
02 16:00 23.5 44 9.3 10.6 33 44 1014.3 0 20.6 24.3 37.8 99.3 95.3 328.9

Last Refresh: 03-Dec-2021 08:54:50

Bureau of Meteorology